sensor_id;sensor_type;location;lat;lon;timestamp;temperature;humidity
52879;DHT22;38747;53.140;6.498;2023-04-25T00:01:15;6.70;99.90
52879;DHT22;38747;53.140;6.498;2023-04-25T00:03:40;6.70;99.90
52879;DHT22;38747;53.140;6.498;2023-04-25T00:06:06;6.70;99.90
52879;DHT22;38747;53.140;6.498;2023-04-25T00:08:33;6.60;99.90
52879;DHT22;38747;53.140;6.498;2023-04-25T00:10:58;6.70;99.90
52879;DHT22;38747;53.140;6.498;2023-04-25T00:13:25;6.60;99.90
52879;DHT22;38747;53.140;6.498;2023-04-25T00:15:52;6.60;99.90
52879;DHT22;38747;53.140;6.498;2023-04-25T00:18:19;6.60;99.90
52879;DHT22;38747;53.140;6.498;2023-04-25T00:20:44;6.60;99.90
52879;DHT22;38747;53.140;6.498;2023-04-25T00:23:13;6.60;99.90
52879;DHT22;38747;53.140;6.498;2023-04-25T00:25:44;6.60;99.90
52879;DHT22;38747;53.140;6.498;2023-04-25T00:28:13;6.70;99.90
52879;DHT22;38747;53.140;6.498;2023-04-25T00:30:40;6.60;99.90
52879;DHT22;38747;53.140;6.498;2023-04-25T00:33:06;6.60;99.90
52879;DHT22;38747;53.140;6.498;2023-04-25T00:35:32;6.60;99.90
52879;DHT22;38747;53.140;6.498;2023-04-25T00:37:58;6.60;99.90
52879;DHT22;38747;53.140;6.498;2023-04-25T00:40:24;6.60;99.90
52879;DHT22;38747;53.140;6.498;2023-04-25T00:42:53;6.50;99.90
52879;DHT22;38747;53.140;6.498;2023-04-25T00:45:19;6.50;99.90
52879;DHT22;38747;53.140;6.498;2023-04-25T00:47:45;6.50;99.90
52879;DHT22;38747;53.140;6.498;2023-04-25T00:50:13;6.50;99.90
52879;DHT22;38747;53.140;6.498;2023-04-25T00:52:40;6.50;99.90
52879;DHT22;38747;53.140;6.498;2023-04-25T00:55:07;6.50;99.90
52879;DHT22;38747;53.140;6.498;2023-04-25T00:57:33;6.40;99.90
52879;DHT22;38747;53.140;6.498;2023-04-25T00:59:59;6.40;99.90
52879;DHT22;38747;53.140;6.498;2023-04-25T01:02:26;6.40;99.90
52879;DHT22;38747;53.140;6.498;2023-04-25T01:04:52;6.40;99.90
52879;DHT22;38747;53.140;6.498;2023-04-25T01:07:18;6.30;99.90
52879;DHT22;38747;53.140;6.498;2023-04-25T01:09:44;6.30;99.90
52879;DHT22;38747;53.140;6.498;2023-04-25T01:12:10;6.30;99.90
52879;DHT22;38747;53.140;6.498;2023-04-25T01:14:36;6.20;99.90
52879;DHT22;38747;53.140;6.498;2023-04-25T01:17:02;6.30;99.90
52879;DHT22;38747;53.140;6.498;2023-04-25T01:19:27;6.20;99.90
52879;DHT22;38747;53.140;6.498;2023-04-25T01:21:54;6.20;99.90
52879;DHT22;38747;53.140;6.498;2023-04-25T01:24:20;6.20;99.90
52879;DHT22;38747;53.140;6.498;2023-04-25T01:26:46;6.30;99.90
52879;DHT22;38747;53.140;6.498;2023-04-25T01:29:19;6.20;99.90
52879;DHT22;38747;53.140;6.498;2023-04-25T01:31:45;6.20;99.90
52879;DHT22;38747;53.140;6.498;2023-04-25T01:34:12;6.20;99.90
52879;DHT22;38747;53.140;6.498;2023-04-25T01:36:39;6.20;99.90
52879;DHT22;38747;53.140;6.498;2023-04-25T01:39:06;6.20;99.90
52879;DHT22;38747;53.140;6.498;2023-04-25T01:41:32;6.20;99.90
52879;DHT22;38747;53.140;6.498;2023-04-25T01:44:00;6.10;99.90
52879;DHT22;38747;53.140;6.498;2023-04-25T01:46:27;6.10;99.90
52879;DHT22;38747;53.140;6.498;2023-04-25T01:48:53;6.10;99.90
52879;DHT22;38747;53.140;6.498;2023-04-25T01:51:19;6.00;99.90
52879;DHT22;38747;53.140;6.498;2023-04-25T01:53:45;6.10;99.90
52879;DHT22;38747;53.140;6.498;2023-04-25T01:56:10;6.10;99.90
52879;DHT22;38747;53.140;6.498;2023-04-25T01:58:36;6.10;99.90
52879;DHT22;38747;53.140;6.498;2023-04-25T02:01:02;6.00;99.90
52879;DHT22;38747;53.140;6.498;2023-04-25T02:03:28;6.00;99.90
52879;DHT22;38747;53.140;6.498;2023-04-25T02:05:54;6.00;99.90
52879;DHT22;38747;53.140;6.498;2023-04-25T02:08:20;6.00;99.90
52879;DHT22;38747;53.140;6.498;2023-04-25T02:10:45;6.00;99.90
52879;DHT22;38747;53.140;6.498;2023-04-25T02:13:11;6.00;99.90
52879;DHT22;38747;53.140;6.498;2023-04-25T02:15:37;6.00;99.90
52879;DHT22;38747;53.140;6.498;2023-04-25T02:18:02;6.00;99.90
52879;DHT22;38747;53.140;6.498;2023-04-25T02:20:29;6.00;99.90
52879;DHT22;38747;53.140;6.498;2023-04-25T02:22:55;6.00;99.90
52879;DHT22;38747;53.140;6.498;2023-04-25T02:25:22;5.90;99.90
52879;DHT22;38747;53.140;6.498;2023-04-25T02:27:48;6.00;99.90
52879;DHT22;38747;53.140;6.498;2023-04-25T02:30:14;6.00;99.90
52879;DHT22;38747;53.140;6.498;2023-04-25T02:32:41;6.00;99.90
52879;DHT22;38747;53.140;6.498;2023-04-25T02:35:07;6.00;99.90
52879;DHT22;38747;53.140;6.498;2023-04-25T02:37:34;6.00;99.90
52879;DHT22;38747;53.140;6.498;2023-04-25T02:40:00;6.00;99.90
52879;DHT22;38747;53.140;6.498;2023-04-25T02:42:27;6.00;99.90
52879;DHT22;38747;53.140;6.498;2023-04-25T02:44:52;6.00;99.90
52879;DHT22;38747;53.140;6.498;2023-04-25T02:47:18;6.00;99.90
52879;DHT22;38747;53.140;6.498;2023-04-25T02:49:44;6.00;99.90
52879;DHT22;38747;53.140;6.498;2023-04-25T02:52:10;6.00;99.90
52879;DHT22;38747;53.140;6.498;2023-04-25T02:54:37;6.00;99.90
52879;DHT22;38747;53.140;6.498;2023-04-25T02:57:03;6.00;99.90
52879;DHT22;38747;53.140;6.498;2023-04-25T02:59:29;6.00;99.90
52879;DHT22;38747;53.140;6.498;2023-04-25T03:01:55;6.00;99.90
52879;DHT22;38747;53.140;6.498;2023-04-25T03:04:23;6.00;99.90
52879;DHT22;38747;53.140;6.498;2023-04-25T03:06:50;6.00;99.90
52879;DHT22;38747;53.140;6.498;2023-04-25T03:09:16;5.90;99.90
52879;DHT22;38747;53.140;6.498;2023-04-25T03:11:42;5.90;99.90
52879;DHT22;38747;53.140;6.498;2023-04-25T03:14:07;5.90;99.90
52879;DHT22;38747;53.140;6.498;2023-04-25T03:16:33;5.90;99.90
52879;DHT22;38747;53.140;6.498;2023-04-25T03:18:59;5.90;99.90
52879;DHT22;38747;53.140;6.498;2023-04-25T03:21:25;5.80;99.90
52879;DHT22;38747;53.140;6.498;2023-04-25T03:23:52;5.80;99.90
52879;DHT22;38747;53.140;6.498;2023-04-25T03:26:17;5.70;99.90
52879;DHT22;38747;53.140;6.498;2023-04-25T03:28:43;5.70;99.90
52879;DHT22;38747;53.140;6.498;2023-04-25T03:31:09;5.60;99.90
52879;DHT22;38747;53.140;6.498;2023-04-25T03:33:35;5.60;99.90
52879;DHT22;38747;53.140;6.498;2023-04-25T03:36:01;5.50;99.90
52879;DHT22;38747;53.140;6.498;2023-04-25T03:38:27;5.50;99.90
52879;DHT22;38747;53.140;6.498;2023-04-25T03:40:54;5.50;99.90
52879;DHT22;38747;53.140;6.498;2023-04-25T03:43:19;5.40;99.90
52879;DHT22;38747;53.140;6.498;2023-04-25T03:45:45;5.30;99.90
52879;DHT22;38747;53.140;6.498;2023-04-25T03:48:11;5.30;99.90
52879;DHT22;38747;53.140;6.498;2023-04-25T03:50:37;5.20;99.90
52879;DHT22;38747;53.140;6.498;2023-04-25T03:53:02;5.20;99.90
52879;DHT22;38747;53.140;6.498;2023-04-25T03:55:28;5.20;99.90
52879;DHT22;38747;53.140;6.498;2023-04-25T03:57:54;5.10;99.90
52879;DHT22;38747;53.140;6.498;2023-04-25T04:00:20;5.10;99.90
52879;DHT22;38747;53.140;6.498;2023-04-25T04:02:45;5.00;99.90
52879;DHT22;38747;53.140;6.498;2023-04-25T04:05:11;5.00;99.90
52879;DHT22;38747;53.140;6.498;2023-04-25T04:07:37;5.00;99.90
52879;DHT22;38747;53.140;6.498;2023-04-25T04:10:11;4.90;99.90
52879;DHT22;38747;53.140;6.498;2023-04-25T04:12:38;4.90;99.90
52879;DHT22;38747;53.140;6.498;2023-04-25T04:15:05;4.80;99.90
52879;DHT22;38747;53.140;6.498;2023-04-25T04:17:31;4.80;99.90
52879;DHT22;38747;53.140;6.498;2023-04-25T04:19:57;4.80;99.90
52879;DHT22;38747;53.140;6.498;2023-04-25T04:22:23;4.80;99.90
52879;DHT22;38747;53.140;6.498;2023-04-25T04:24:49;4.80;99.90
52879;DHT22;38747;53.140;6.498;2023-04-25T04:27:18;4.70;99.90
52879;DHT22;38747;53.140;6.498;2023-04-25T04:29:45;4.70;99.90
52879;DHT22;38747;53.140;6.498;2023-04-25T04:32:12;4.70;99.90
52879;DHT22;38747;53.140;6.498;2023-04-25T04:34:38;4.70;99.90
52879;DHT22;38747;53.140;6.498;2023-04-25T04:37:05;4.70;99.90
52879;DHT22;38747;53.140;6.498;2023-04-25T04:39:35;4.70;99.90
52879;DHT22;38747;53.140;6.498;2023-04-25T04:42:02;4.70;99.90
52879;DHT22;38747;53.140;6.498;2023-04-25T04:44:29;4.70;99.90
52879;DHT22;38747;53.140;6.498;2023-04-25T04:46:54;4.70;99.90
52879;DHT22;38747;53.140;6.498;2023-04-25T04:49:21;4.70;99.90
52879;DHT22;38747;53.140;6.498;2023-04-25T04:51:46;4.70;99.90
52879;DHT22;38747;53.140;6.498;2023-04-25T04:54:13;4.70;99.90
52879;DHT22;38747;53.140;6.498;2023-04-25T04:56:38;4.70;99.90
52879;DHT22;38747;53.140;6.498;2023-04-25T04:59:04;4.80;99.90
52879;DHT22;38747;53.140;6.498;2023-04-25T05:01:30;4.80;99.90
52879;DHT22;38747;53.140;6.498;2023-04-25T05:03:57;4.80;99.90
52879;DHT22;38747;53.140;6.498;2023-04-25T05:06:26;4.90;99.90
52879;DHT22;38747;53.140;6.498;2023-04-25T05:08:52;4.90;99.90
52879;DHT22;38747;53.140;6.498;2023-04-25T05:11:19;4.90;99.90
52879;DHT22;38747;53.140;6.498;2023-04-25T05:13:44;5.00;99.90
52879;DHT22;38747;53.140;6.498;2023-04-25T05:16:11;5.00;99.90
52879;DHT22;38747;53.140;6.498;2023-04-25T05:18:37;5.00;99.90
52879;DHT22;38747;53.140;6.498;2023-04-25T05:21:06;5.10;99.90
52879;DHT22;38747;53.140;6.498;2023-04-25T05:23:32;5.10;99.90
52879;DHT22;38747;53.140;6.498;2023-04-25T05:25:59;5.20;99.90
52879;DHT22;38747;53.140;6.498;2023-04-25T05:28:24;5.20;99.90
52879;DHT22;38747;53.140;6.498;2023-04-25T05:30:50;5.20;99.90
52879;DHT22;38747;53.140;6.498;2023-04-25T05:33:16;5.20;99.90
52879;DHT22;38747;53.140;6.498;2023-04-25T05:35:42;5.30;99.90
52879;DHT22;38747;53.140;6.498;2023-04-25T05:38:07;5.30;99.90
52879;DHT22;38747;53.140;6.498;2023-04-25T05:40:33;5.40;99.90
52879;DHT22;38747;53.140;6.498;2023-04-25T05:42:59;5.50;99.90
52879;DHT22;38747;53.140;6.498;2023-04-25T05:45:25;5.90;99.90
52879;DHT22;38747;53.140;6.498;2023-04-25T05:47:50;6.40;99.90
52879;DHT22;38747;53.140;6.498;2023-04-25T05:50:16;6.70;99.90
52879;DHT22;38747;53.140;6.498;2023-04-25T05:52:42;6.90;99.90
52879;DHT22;38747;53.140;6.498;2023-04-25T05:55:08;7.20;99.90
52879;DHT22;38747;53.140;6.498;2023-04-25T05:57:34;7.30;99.90
52879;DHT22;38747;53.140;6.498;2023-04-25T06:00:00;7.60;99.90
52879;DHT22;38747;53.140;6.498;2023-04-25T06:02:26;8.00;99.90
52879;DHT22;38747;53.140;6.498;2023-04-25T06:04:52;8.10;99.90
52879;DHT22;38747;53.140;6.498;2023-04-25T06:07:19;8.20;99.90
52879;DHT22;38747;53.140;6.498;2023-04-25T06:09:45;8.30;99.90
52879;DHT22;38747;53.140;6.498;2023-04-25T06:12:11;8.30;99.90
52879;DHT22;38747;53.140;6.498;2023-04-25T06:14:37;8.00;99.90
52879;DHT22;38747;53.140;6.498;2023-04-25T06:17:03;7.90;99.90
52879;DHT22;38747;53.140;6.498;2023-04-25T06:19:34;7.80;99.90
52879;DHT22;38747;53.140;6.498;2023-04-25T06:22:00;8.00;99.90
52879;DHT22;38747;53.140;6.498;2023-04-25T06:24:26;8.40;99.90
52879;DHT22;38747;53.140;6.498;2023-04-25T06:26:52;8.40;99.90
52879;DHT22;38747;53.140;6.498;2023-04-25T06:29:18;8.30;99.90
52879;DHT22;38747;53.140;6.498;2023-04-25T06:31:44;8.10;99.90
52879;DHT22;38747;53.140;6.498;2023-04-25T06:34:10;7.90;99.90
52879;DHT22;38747;53.140;6.498;2023-04-25T06:36:36;7.70;99.90
52879;DHT22;38747;53.140;6.498;2023-04-25T06:39:01;7.60;99.90
52879;DHT22;38747;53.140;6.498;2023-04-25T06:41:27;7.40;99.90
52879;DHT22;38747;53.140;6.498;2023-04-25T06:43:53;7.30;99.90
52879;DHT22;38747;53.140;6.498;2023-04-25T06:46:18;7.20;99.90
52879;DHT22;38747;53.140;6.498;2023-04-25T06:48:44;7.10;99.90
52879;DHT22;38747;53.140;6.498;2023-04-25T06:51:13;7.10;99.90
52879;DHT22;38747;53.140;6.498;2023-04-25T06:53:39;7.30;99.90
52879;DHT22;38747;53.140;6.498;2023-04-25T06:56:05;7.30;99.90
52879;DHT22;38747;53.140;6.498;2023-04-25T06:58:31;7.40;99.90
52879;DHT22;38747;53.140;6.498;2023-04-25T07:00:57;7.40;99.90
52879;DHT22;38747;53.140;6.498;2023-04-25T07:03:22;7.20;99.90
52879;DHT22;38747;53.140;6.498;2023-04-25T07:05:49;7.00;99.90
52879;DHT22;38747;53.140;6.498;2023-04-25T07:08:15;7.00;99.90
52879;DHT22;38747;53.140;6.498;2023-04-25T07:10:41;6.90;99.90
52879;DHT22;38747;53.140;6.498;2023-04-25T07:13:06;6.90;99.90
52879;DHT22;38747;53.140;6.498;2023-04-25T07:15:32;6.90;99.90
52879;DHT22;38747;53.140;6.498;2023-04-25T07:17:58;7.10;99.90
52879;DHT22;38747;53.140;6.498;2023-04-25T07:20:24;7.30;99.90
52879;DHT22;38747;53.140;6.498;2023-04-25T07:22:49;7.30;99.90
52879;DHT22;38747;53.140;6.498;2023-04-25T07:25:16;7.30;99.90
52879;DHT22;38747;53.140;6.498;2023-04-25T07:27:41;7.30;99.90
52879;DHT22;38747;53.140;6.498;2023-04-25T07:30:07;7.40;99.90
52879;DHT22;38747;53.140;6.498;2023-04-25T07:32:33;7.50;99.90
52879;DHT22;38747;53.140;6.498;2023-04-25T07:34:59;7.50;99.90
52879;DHT22;38747;53.140;6.498;2023-04-25T07:37:25;7.50;99.90
52879;DHT22;38747;53.140;6.498;2023-04-25T07:39:51;7.60;99.90
52879;DHT22;38747;53.140;6.498;2023-04-25T07:42:17;7.70;99.90
52879;DHT22;38747;53.140;6.498;2023-04-25T07:44:42;7.70;99.90
52879;DHT22;38747;53.140;6.498;2023-04-25T07:47:08;7.80;99.90
52879;DHT22;38747;53.140;6.498;2023-04-25T07:49:35;7.90;99.90
52879;DHT22;38747;53.140;6.498;2023-04-25T07:52:01;7.90;99.90
52879;DHT22;38747;53.140;6.498;2023-04-25T07:54:27;8.00;99.90
52879;DHT22;38747;53.140;6.498;2023-04-25T07:56:53;7.70;99.90
52879;DHT22;38747;53.140;6.498;2023-04-25T07:59:19;7.70;99.90
52879;DHT22;38747;53.140;6.498;2023-04-25T08:01:45;7.60;99.90
52879;DHT22;38747;53.140;6.498;2023-04-25T08:04:10;7.50;99.90
52879;DHT22;38747;53.140;6.498;2023-04-25T08:06:36;7.60;99.90
52879;DHT22;38747;53.140;6.498;2023-04-25T08:09:02;7.60;99.90
52879;DHT22;38747;53.140;6.498;2023-04-25T08:11:28;7.80;99.90
52879;DHT22;38747;53.140;6.498;2023-04-25T08:13:54;8.00;99.90
52879;DHT22;38747;53.140;6.498;2023-04-25T08:16:20;8.10;99.90
52879;DHT22;38747;53.140;6.498;2023-04-25T08:18:45;8.20;99.90
52879;DHT22;38747;53.140;6.498;2023-04-25T08:21:11;8.20;99.90
52879;DHT22;38747;53.140;6.498;2023-04-25T08:23:38;7.50;99.90
52879;DHT22;38747;53.140;6.498;2023-04-25T08:26:04;6.20;99.90
52879;DHT22;38747;53.140;6.498;2023-04-25T08:28:31;5.40;99.90
52879;DHT22;38747;53.140;6.498;2023-04-25T08:30:56;5.10;99.90
52879;DHT22;38747;53.140;6.498;2023-04-25T08:33:22;4.80;99.90
52879;DHT22;38747;53.140;6.498;2023-04-25T08:35:48;4.80;99.90
52879;DHT22;38747;53.140;6.498;2023-04-25T08:38:14;5.20;99.90
52879;DHT22;38747;53.140;6.498;2023-04-25T08:40:40;5.50;99.90
52879;DHT22;38747;53.140;6.498;2023-04-25T08:43:07;5.70;99.90
52879;DHT22;38747;53.140;6.498;2023-04-25T08:45:41;5.90;99.90
52879;DHT22;38747;53.140;6.498;2023-04-25T08:48:14;6.00;99.90
52879;DHT22;38747;53.140;6.498;2023-04-25T08:50:52;5.90;99.90
52879;DHT22;38747;53.140;6.498;2023-04-25T08:53:25;5.80;99.90
52879;DHT22;38747;53.140;6.498;2023-04-25T08:55:53;5.80;99.90
52879;DHT22;38747;53.140;6.498;2023-04-25T08:58:19;5.90;99.90
52879;DHT22;38747;53.140;6.498;2023-04-25T09:00:47;6.00;99.90
52879;DHT22;38747;53.140;6.498;2023-04-25T09:03:13;6.20;99.90
52879;DHT22;38747;53.140;6.498;2023-04-25T09:05:40;6.40;99.90
52879;DHT22;38747;53.140;6.498;2023-04-25T09:08:06;6.60;99.90
52879;DHT22;38747;53.140;6.498;2023-04-25T09:10:32;6.80;99.90
52879;DHT22;38747;53.140;6.498;2023-04-25T09:13:11;6.90;99.90
52879;DHT22;38747;53.140;6.498;2023-04-25T09:15:53;7.20;99.90
52879;DHT22;38747;53.140;6.498;2023-04-25T09:18:33;7.40;99.90
52879;DHT22;38747;53.140;6.498;2023-04-25T09:21:07;7.70;99.90
52879;DHT22;38747;53.140;6.498;2023-04-25T09:23:45;7.90;99.90
52879;DHT22;38747;53.140;6.498;2023-04-25T09:26:18;8.20;99.90
52879;DHT22;38747;53.140;6.498;2023-04-25T09:28:45;8.40;99.90
52879;DHT22;38747;53.140;6.498;2023-04-25T09:31:11;8.60;99.90
52879;DHT22;38747;53.140;6.498;2023-04-25T09:33:37;8.90;99.90
52879;DHT22;38747;53.140;6.498;2023-04-25T09:36:05;9.00;99.90
52879;DHT22;38747;53.140;6.498;2023-04-25T09:38:40;9.00;99.90
52879;DHT22;38747;53.140;6.498;2023-04-25T09:41:07;8.60;99.90
52879;DHT22;38747;53.140;6.498;2023-04-25T09:43:33;8.30;99.90
52879;DHT22;38747;53.140;6.498;2023-04-25T09:45:59;8.10;99.90
52879;DHT22;38747;53.140;6.498;2023-04-25T09:48:27;7.80;99.90
52879;DHT22;38747;53.140;6.498;2023-04-25T09:51:12;7.80;99.90
52879;DHT22;38747;53.140;6.498;2023-04-25T09:53:46;7.80;99.90
52879;DHT22;38747;53.140;6.498;2023-04-25T09:56:12;8.10;99.90
52879;DHT22;38747;53.140;6.498;2023-04-25T09:58:40;8.40;99.90
52879;DHT22;38747;53.140;6.498;2023-04-25T10:01:08;8.50;99.90
52879;DHT22;38747;53.140;6.498;2023-04-25T10:03:35;8.50;99.90
52879;DHT22;38747;53.140;6.498;2023-04-25T10:06:07;8.60;99.90
52879;DHT22;38747;53.140;6.498;2023-04-25T10:08:37;8.80;99.90
52879;DHT22;38747;53.140;6.498;2023-04-25T10:11:07;9.10;99.90
52879;DHT22;38747;53.140;6.498;2023-04-25T10:13:34;9.00;99.90
52879;DHT22;38747;53.140;6.498;2023-04-25T10:16:02;9.40;99.90
52879;DHT22;38747;53.140;6.498;2023-04-25T10:18:29;9.70;99.90
52879;DHT22;38747;53.140;6.498;2023-04-25T10:21:02;9.90;99.90
52879;DHT22;38747;53.140;6.498;2023-04-25T10:23:30;9.90;99.90
52879;DHT22;38747;53.140;6.498;2023-04-25T10:25:57;9.40;99.90
52879;DHT22;38747;53.140;6.498;2023-04-25T10:28:23;9.10;99.90
52879;DHT22;38747;53.140;6.498;2023-04-25T10:33:33;8.60;99.90
52879;DHT22;38747;53.140;6.498;2023-04-25T10:36:15;8.60;99.90
52879;DHT22;38747;53.140;6.498;2023-04-25T10:38:43;8.70;99.90
52879;DHT22;38747;53.140;6.498;2023-04-25T10:41:10;8.70;99.90
52879;DHT22;38747;53.140;6.498;2023-04-25T10:43:41;9.20;99.90
52879;DHT22;38747;53.140;6.498;2023-04-25T10:46:23;9.60;99.90
52879;DHT22;38747;53.140;6.498;2023-04-25T10:48:57;9.50;99.90
52879;DHT22;38747;53.140;6.498;2023-04-25T10:51:25;9.70;99.90
52879;DHT22;38747;53.140;6.498;2023-04-25T10:58:47;9.20;99.90
52879;DHT22;38747;53.140;6.498;2023-04-25T11:01:14;8.90;99.90
52879;DHT22;38747;53.140;6.498;2023-04-25T11:03:41;8.90;99.90
52879;DHT22;38747;53.140;6.498;2023-04-25T11:06:21;9.20;99.90
52879;DHT22;38747;53.140;6.498;2023-04-25T11:08:49;9.30;99.90
52879;DHT22;38747;53.140;6.498;2023-04-25T11:11:17;9.30;99.90
52879;DHT22;38747;53.140;6.498;2023-04-25T11:13:43;9.50;99.90
52879;DHT22;38747;53.140;6.498;2023-04-25T11:16:09;9.50;99.90
52879;DHT22;38747;53.140;6.498;2023-04-25T11:18:35;9.40;99.90
52879;DHT22;38747;53.140;6.498;2023-04-25T11:21:02;9.50;99.90
52879;DHT22;38747;53.140;6.498;2023-04-25T11:23:29;9.70;99.90
52879;DHT22;38747;53.140;6.498;2023-04-25T11:25:55;9.70;99.90
52879;DHT22;38747;53.140;6.498;2023-04-25T11:28:22;9.70;99.90
52879;DHT22;38747;53.140;6.498;2023-04-25T11:30:52;9.90;99.90
52879;DHT22;38747;53.140;6.498;2023-04-25T11:33:18;10.00;99.90
52879;DHT22;38747;53.140;6.498;2023-04-25T11:35:43;9.90;99.90
52879;DHT22;38747;53.140;6.498;2023-04-25T11:38:09;9.90;99.90
52879;DHT22;38747;53.140;6.498;2023-04-25T11:40:35;9.90;99.90
52879;DHT22;38747;53.140;6.498;2023-04-25T11:43:01;9.80;99.90
52879;DHT22;38747;53.140;6.498;2023-04-25T11:45:27;9.90;99.90
52879;DHT22;38747;53.140;6.498;2023-04-25T11:47:54;10.10;99.90
52879;DHT22;38747;53.140;6.498;2023-04-25T11:50:20;10.20;99.90
52879;DHT22;38747;53.140;6.498;2023-04-25T11:52:47;10.30;99.90
52879;DHT22;38747;53.140;6.498;2023-04-25T11:55:14;10.10;99.90
52879;DHT22;38747;53.140;6.498;2023-04-25T11:57:42;9.90;99.90
52879;DHT22;38747;53.140;6.498;2023-04-25T12:00:13;10.10;99.90
52879;DHT22;38747;53.140;6.498;2023-04-25T12:02:41;10.50;99.90
52879;DHT22;38747;53.140;6.498;2023-04-25T12:05:08;10.50;99.90
52879;DHT22;38747;53.140;6.498;2023-04-25T12:07:34;10.70;99.90
52879;DHT22;38747;53.140;6.498;2023-04-25T12:10:07;11.00;99.90
52879;DHT22;38747;53.140;6.498;2023-04-25T12:12:34;10.80;99.90
52879;DHT22;38747;53.140;6.498;2023-04-25T12:17:42;10.20;99.90
52879;DHT22;38747;53.140;6.498;2023-04-25T12:20:14;9.90;99.90
52879;DHT22;38747;53.140;6.498;2023-04-25T12:22:42;9.90;99.90
52879;DHT22;38747;53.140;6.498;2023-04-25T12:25:39;9.70;99.90
52879;DHT22;38747;53.140;6.498;2023-04-25T12:28:22;9.50;99.90
52879;DHT22;38747;53.140;6.498;2023-04-25T12:33:29;9.20;99.90
52879;DHT22;38747;53.140;6.498;2023-04-25T12:35:56;9.20;99.90
52879;DHT22;38747;53.140;6.498;2023-04-25T12:38:26;9.00;99.90
52879;DHT22;38747;53.140;6.498;2023-04-25T12:40:53;9.10;99.90
52879;DHT22;38747;53.140;6.498;2023-04-25T12:43:19;9.10;99.90
52879;DHT22;38747;53.140;6.498;2023-04-25T12:45:47;9.40;99.90
52879;DHT22;38747;53.140;6.498;2023-04-25T12:48:14;9.70;99.90
52879;DHT22;38747;53.140;6.498;2023-04-25T12:50:40;9.60;99.90
52879;DHT22;38747;53.140;6.498;2023-04-25T12:53:06;9.40;99.90
52879;DHT22;38747;53.140;6.498;2023-04-25T12:55:32;9.20;99.90
52879;DHT22;38747;53.140;6.498;2023-04-25T12:57:58;9.10;99.90
52879;DHT22;38747;53.140;6.498;2023-04-25T13:00:23;9.10;99.90
52879;DHT22;38747;53.140;6.498;2023-04-25T13:02:50;9.30;99.90
52879;DHT22;38747;53.140;6.498;2023-04-25T13:05:15;9.70;99.90
52879;DHT22;38747;53.140;6.498;2023-04-25T13:07:41;10.10;99.90
52879;DHT22;38747;53.140;6.498;2023-04-25T13:10:07;10.00;99.90
52879;DHT22;38747;53.140;6.498;2023-04-25T13:12:33;9.70;99.90
52879;DHT22;38747;53.140;6.498;2023-04-25T13:14:59;9.70;99.90
52879;DHT22;38747;53.140;6.498;2023-04-25T13:17:24;9.70;99.90
52879;DHT22;38747;53.140;6.498;2023-04-25T13:19:50;9.70;99.90
52879;DHT22;38747;53.140;6.498;2023-04-25T13:22:16;9.80;99.90
52879;DHT22;38747;53.140;6.498;2023-04-25T13:24:42;9.80;99.90
52879;DHT22;38747;53.140;6.498;2023-04-25T13:27:08;9.40;99.90
52879;DHT22;38747;53.140;6.498;2023-04-25T13:29:34;9.20;99.90
52879;DHT22;38747;53.140;6.498;2023-04-25T13:32:01;9.30;99.90
52879;DHT22;38747;53.140;6.498;2023-04-25T13:34:29;9.60;99.90
52879;DHT22;38747;53.140;6.498;2023-04-25T13:36:55;9.80;99.90
52879;DHT22;38747;53.140;6.498;2023-04-25T13:39:20;9.80;99.90
52879;DHT22;38747;53.140;6.498;2023-04-25T13:41:46;9.60;99.90
52879;DHT22;38747;53.140;6.498;2023-04-25T13:44:11;9.50;99.90
52879;DHT22;38747;53.140;6.498;2023-04-25T13:46:37;9.10;99.90
52879;DHT22;38747;53.140;6.498;2023-04-25T13:49:04;9.10;99.90
52879;DHT22;38747;53.140;6.498;2023-04-25T13:51:29;9.10;99.90
52879;DHT22;38747;53.140;6.498;2023-04-25T13:53:56;9.20;99.90
52879;DHT22;38747;53.140;6.498;2023-04-25T13:56:22;9.20;99.90
52879;DHT22;38747;53.140;6.498;2023-04-25T13:58:49;9.20;99.90
52879;DHT22;38747;53.140;6.498;2023-04-25T14:01:15;9.50;99.90
52879;DHT22;38747;53.140;6.498;2023-04-25T14:03:41;9.80;99.90
52879;DHT22;38747;53.140;6.498;2023-04-25T14:06:07;10.00;99.90
52879;DHT22;38747;53.140;6.498;2023-04-25T14:08:34;9.90;99.90
52879;DHT22;38747;53.140;6.498;2023-04-25T14:11:02;10.00;99.90
52879;DHT22;38747;53.140;6.498;2023-04-25T14:13:28;10.20;99.90
52879;DHT22;38747;53.140;6.498;2023-04-25T14:15:54;10.30;99.90
52879;DHT22;38747;53.140;6.498;2023-04-25T14:18:20;10.40;99.90
52879;DHT22;38747;53.140;6.498;2023-04-25T14:20:46;10.20;99.90
52879;DHT22;38747;53.140;6.498;2023-04-25T14:23:12;9.90;99.90
52879;DHT22;38747;53.140;6.498;2023-04-25T14:25:40;9.80;99.90
52879;DHT22;38747;53.140;6.498;2023-04-25T14:28:07;9.70;99.90
52879;DHT22;38747;53.140;6.498;2023-04-25T14:30:33;9.60;99.90
52879;DHT22;38747;53.140;6.498;2023-04-25T14:32:58;9.50;99.90
52879;DHT22;38747;53.140;6.498;2023-04-25T14:35:24;9.50;99.90
52879;DHT22;38747;53.140;6.498;2023-04-25T14:37:50;9.40;99.90
52879;DHT22;38747;53.140;6.498;2023-04-25T14:40:16;9.50;99.90
52879;DHT22;38747;53.140;6.498;2023-04-25T14:42:42;9.60;99.90
52879;DHT22;38747;53.140;6.498;2023-04-25T14:45:08;9.60;99.90
52879;DHT22;38747;53.140;6.498;2023-04-25T14:47:35;9.70;99.90
52879;DHT22;38747;53.140;6.498;2023-04-25T14:50:01;9.80;99.90
52879;DHT22;38747;53.140;6.498;2023-04-25T14:52:27;9.80;99.90
52879;DHT22;38747;53.140;6.498;2023-04-25T14:54:53;9.80;99.90
52879;DHT22;38747;53.140;6.498;2023-04-25T14:57:19;9.80;99.90
52879;DHT22;38747;53.140;6.498;2023-04-25T14:59:47;9.50;99.90
52879;DHT22;38747;53.140;6.498;2023-04-25T15:02:12;9.60;99.90
52879;DHT22;38747;53.140;6.498;2023-04-25T15:04:38;9.30;99.90
52879;DHT22;38747;53.140;6.498;2023-04-25T15:07:04;9.00;99.90
52879;DHT22;38747;53.140;6.498;2023-04-25T15:09:30;8.90;99.90
52879;DHT22;38747;53.140;6.498;2023-04-25T15:11:56;8.80;99.90
52879;DHT22;38747;53.140;6.498;2023-04-25T15:14:22;8.60;99.90
52879;DHT22;38747;53.140;6.498;2023-04-25T15:16:47;8.40;99.90
52879;DHT22;38747;53.140;6.498;2023-04-25T15:19:13;8.30;99.90
52879;DHT22;38747;53.140;6.498;2023-04-25T15:21:39;8.30;99.90
52879;DHT22;38747;53.140;6.498;2023-04-25T15:24:05;8.40;99.90
52879;DHT22;38747;53.140;6.498;2023-04-25T15:26:31;8.50;99.90
52879;DHT22;38747;53.140;6.498;2023-04-25T15:28:57;8.60;99.90
52879;DHT22;38747;53.140;6.498;2023-04-25T15:31:23;8.60;99.90
52879;DHT22;38747;53.140;6.498;2023-04-25T15:33:48;8.60;99.90
52879;DHT22;38747;53.140;6.498;2023-04-25T15:36:14;8.60;99.90
52879;DHT22;38747;53.140;6.498;2023-04-25T15:38:42;8.50;99.90
52879;DHT22;38747;53.140;6.498;2023-04-25T15:41:07;8.40;99.90
52879;DHT22;38747;53.140;6.498;2023-04-25T15:43:33;8.30;99.90
52879;DHT22;38747;53.140;6.498;2023-04-25T15:46:03;8.20;99.90
52879;DHT22;38747;53.140;6.498;2023-04-25T15:48:28;8.10;99.90
52879;DHT22;38747;53.140;6.498;2023-04-25T15:50:54;8.10;99.90
52879;DHT22;38747;53.140;6.498;2023-04-25T15:53:20;8.20;99.90
52879;DHT22;38747;53.140;6.498;2023-04-25T15:55:46;8.30;99.90